CQ0XSM-11 Weather Reports


time (UTC)temp
C
wind
direction
speed
KPH
gust
KPH
rain 1hr
cm
rain 24hr
cm
rain mn
cm
humidity
%
barometer
mb
20260503185404 12 323 4.8 9.7 0.00 0.00 0.03 100 994.1
20260503185000 12 306 3.2 11.3 0.00 0.00 0.03 100 994.0
20260503184405 12 311 1.6 9.7 0.00 0.00 0.03 100 994.0
20260503183911 12 302 4.8 11.3 0.00 0.00 0.03 100 994.0
20260503183448 12 308 3.2 12.9 0.00 0.00 0.03 100 993.9
20260503182353 12 324 4.8 17.7 0.00 0.00 0.03 100 994.0
20260503181909 12 302 4.8 22.5 0.00 0.00 0.03 100 993.9
20260503181346 12 261 9.7 14.5 0.00 0.00 0.03 100 993.9
20260503180852 13 276 11.3 19.3 0.00 0.00 0.03 100 993.9
20260503175839 13 263 9.7 11.3 0.00 0.00 0.03 100 993.8
20260503175351 13 280 11.3 12.9 0.00 0.00 0.03 100 993.7
20260503174847 13 314 3.2 4.8 0.00 0.00 0.03 100 993.8
20260503174327 13 315 4.8 4.8 0.00 0.00 0.03 100 993.7
20260503173834 12 275 3.2 4.8 0.00 0.00 0.03 100 993.8
20260503173352 12 269 1.6 4.8 0.00 0.00 0.03 100 993.8
20260503172827 12 315 3.2 3.2 0.00 0.00 0.03 100 993.9
20260503172317 12 270 1.6 4.8 0.00 0.00 0.03 100 993.8
20260503171837 12 315 0.0 0.0 0.00 0.00 0.03 100 993.8
20260503170812 12 315 0.0 3.2 0.00 0.00 0.03 100 993.8
20260503170319 12 317 1.6 1.6 0.00 0.00 0.03 100 993.8
20260503150710 16 282 9.7 14.5 0.00 0.00 0.00 68 993.6
20260503150207 16 332 8.0 19.3 0.00 0.00 0.00 70 993.5
20260503140129 15 268 14.5 16.1 0.00 0.00 0.00 67 993.9
20260503131059 16 279 4.8 9.7 0.00 0.00 0.00 65 994.1
20260503130609 15 309 8.0 16.1 0.00 0.00 0.00 68 994.2
20260503110429 15 320 6.4 9.7 0.00 0.00 0.00 69 995.0
20260503090316 11 109 0.0 6.4 0.00 0.00 0.00 100 995.5
20260503081248 10 315 0.0 1.6 0.00 0.00 0.00 100 995.5
20260503080738 9 315 1.6 1.6 0.00 0.00 0.00 100 995.5
20260503080241 9 315 0.0 1.6 0.00 0.00 0.00 100 995.5
20260503072658 9 270 1.6 3.2 0.00 0.00 0.00 100 995.3
20260503072233 9 308 0.0 3.2 0.00 0.00 0.00 100 995.3
20260503071713 9 306 1.6 3.2 0.00 0.00 0.00 100 995.3
20260503071158 9 282 1.6 1.6 0.00 0.00 0.00 100 995.3
20260503070714 8 300 0.0 3.2 0.00 0.00 0.00 100 995.3
20260503070149 8 315 0.0 1.6 0.00 0.00 0.00 100 995.2
20260503060115 6 55 0.0 1.6 0.00 0.00 0.00 100 995.0
20260503055126 6 135 0.0 1.6 0.00 0.00 0.00 100 995.0
20260503054554 6 90 0.0 1.6 0.00 0.00 0.00 100 995.0
20260503054112 6 90 0.0 0.0 0.00 0.00 0.00 100 995.0
20260503053612 6 90 0.0 1.6 0.00 0.00 0.00 100 994.9
20260503053055 6 94 1.6 1.6 0.00 0.00 0.00 100 994.9
20260503052535 6 90 0.0 0.0 0.00 0.00 0.00 100 994.9
20260503052108 6 90 0.0 0.0 0.00 0.00 0.00 100 994.9
20260503051548 6 119 0.0 0.0 0.00 0.00 0.00 100 994.9
20260503051041 6 90 0.0 0.0 0.00 0.00 0.00 100 995.0
20260503050551 6 315 0.0 0.0 0.00 0.00 0.00 100 995.0
20260503050042 6 135 0.0 1.6 0.00 0.00 0.00 100 994.8
20260503045525 6 135 0.0 0.0 0.00 0.00 0.00 100 994.8
20260503045042 6 340 0.0 0.0 0.00 0.00 0.00 100 994.9
20260503044525 6 135 0.0 1.6 0.00 0.00 0.00 100 994.9
20260503044023 5 135 1.6 1.6 0.00 0.00 0.00 100 994.8
20260503043553 5 315 0.0 1.6 0.00 0.00 0.00 100 995.0
20260503043010 5 315 0.0 0.0 0.00 0.00 0.00 100 994.8
20260503042518 5 270 0.0 0.0 0.00 0.00 0.00 100 994.8
20260503042026 5 121 0.0 1.6 0.00 0.00 0.00 100 994.7
20260503041514 5 90 0.0 1.6 0.00 0.00 0.00 100 994.8
20260503040957 5 90 0.0 0.0 0.00 0.00 0.00 100 994.9
20260503040444 5 90 0.0 0.0 0.00 0.00 0.00 100 994.9
20260503035953 5 45 0.0 0.0 0.00 0.00 0.00 100 994.9
20260503035445 5 0 0.0 0.0 0.00 0.00 0.00 100 994.9
20260503034951 5 93 0.0 0.0 0.00 0.00 0.00 100 994.9
20260503034431 5 90 0.0 0.0 0.00 0.00 0.00 100 994.9
20260503033947 5 135 0.0 0.0 0.00 0.00 0.00 100 994.9
20260503033445 5 45 0.0 0.0 0.00 0.00 0.00 100 994.9
20260503032958 5 45 0.0 0.0 0.00 0.00 0.00 100 994.9
20260503032420 5 90 0.0 0.0 0.00 0.00 0.00 100 995.1
20260503031414 5 315 0.0 0.0 0.00 0.00 0.00 100 995.1
20260503030938 5 48 0.0 0.0 0.00 0.00 0.00 100 995.1
20260503030406 5 315 0.0 0.0 0.00 0.00 0.00 100 995.1
20260503025904 6 135 0.0 0.0 0.00 0.00 0.00 100 995.0
20260503025414 6 90 0.0 0.0 0.00 0.00 0.00 100 995.1
20260503024913 6 45 0.0 0.0 0.00 0.00 0.00 100 995.0
20260503024408 6 45 0.0 1.6 0.00 0.00 0.00 100 995.2
20260503023906 6 90 0.0 0.0 0.00 0.00 0.00 100 995.1
20260503022901 6 90 0.0 0.0 0.00 0.00 0.00 100 995.3
20260503022358 6 130 0.0 0.0 0.00 0.00 0.00 100 995.3
20260503021854 6 315 0.0 0.0 0.00 0.00 0.00 100 995.3
20260503021341 6 45 0.0 0.0 0.00 0.00 0.00 100 995.4
20260503020851 6 90 0.0 0.0 0.00 0.00 0.00 100 995.4
20260503015843 6 90 0.0 0.0 0.00 0.00 0.00 100 995.4
20260503015321 6 90 0.0 0.0 0.00 0.00 0.00 100 995.4
20260503014837 6 109 0.0 0.0 0.00 0.00 0.00 100 995.3
20260503014328 6 45 0.0 0.0 0.00 0.00 0.00 100 995.3
20260503013845 6 45 0.0 0.0 0.00 0.00 0.00 100 995.5
20260503013315 6 51 0.0 0.0 0.00 0.00 0.00 100 995.6
20260503012822 6 90 0.0 0.0 0.00 0.00 0.00 100 995.6
20260503012317 7 45 0.0 0.0 0.00 0.00 0.00 100 995.6
20260503011826 7 104 0.0 0.0 0.00 0.00 0.00 100 995.7
20260503011257 7 45 0.0 0.0 0.00 0.00 0.00 100 995.8
20260503010819 7 106 0.0 1.6 0.00 0.00 0.00 100 995.7
20260503010256 7 90 0.0 0.0 0.00 0.00 0.00 100 995.8
20260503005758 7 90 0.0 0.0 0.00 0.00 0.00 100 995.8
20260503005250 7 45 0.0 0.0 0.00 0.00 0.00 100 995.8
20260503004757 7 45 0.0 0.0 0.00 0.00 0.00 100 996.0
20260503004252 7 90 0.0 0.0 0.00 0.00 0.00 100 995.9
20260503003755 7 90 0.0 0.0 0.00 0.00 0.00 100 995.9
20260503003232 7 132 0.0 0.0 0.00 0.00 0.00 100 996.1
20260503002758 7 90 0.0 0.0 0.00 0.00 0.00 100 996.0
20260503002235 8 104 0.0 0.0 0.00 0.00 0.00 100 996.0
20260503001752 8 42 0.0 0.0 0.00 0.00 0.00 100 996.0
20260503001241 8 96 0.0 0.0 0.00 0.00 0.00 100 996.0
20260503000736 8 90 0.0 0.0 0.00 0.00 0.00 100 996.1
20260503000215 8 93 0.0 0.0 0.00 0.00 0.00 100 996.1
20260502235737 8 100 0.0 0.0 0.00 0.00 0.00 100 996.1
20260502235208 8 92 0.0 0.0 0.00 0.00 0.00 100 996.2
20260502234732 8 135 0.0 0.0 0.00 0.00 0.00 100 996.2
20260502234220 9 90 0.0 0.0 0.00 0.00 0.00 100 996.2
20260502233217 9 225 0.0 0.0 0.00 0.00 0.00 100 996.3
20260502232713 9 315 0.0 0.0 0.00 0.00 0.00 100 996.4
20260502232146 10 315 0.0 0.0 0.00 0.00 0.00 100 996.3
20260502231709 10 225 0.0 0.0 0.00 0.00 0.00 100 996.3
20260502231204 10 270 0.0 0.0 0.00 0.00 0.00 100 996.3
20260502230731 10 225 0.0 0.0 0.00 0.00 0.00 100 996.3
20260502230133 10 270 0.0 0.0 0.00 0.00 0.00 100 996.3
20260502225654 10 270 0.0 0.0 0.00 0.00 0.00 100 996.3
20260502224641 11 304 0.0 0.0 0.00 0.00 0.00 100 996.3
20260502224135 11 90 0.0 0.0 0.00 0.00 0.00 100 996.2
20260502223621 11 270 0.0 0.0 0.00 0.00 0.00 100 996.1
20260502223114 11 45 0.0 0.0 0.00 0.00 0.00 100 996.2
20260502222658 11 315 0.0 0.0 0.00 0.00 0.00 100 996.2
20260502222115 11 315 0.0 0.0 0.00 0.00 0.00 100 996.3
20260502221639 11 315 0.0 0.0 0.00 0.00 0.00 100 996.1
20260502221123 11 315 0.0 0.0 0.00 0.00 0.00 100 996.3
20260502220638 11 315 0.0 0.0 0.00 0.00 0.00 100 996.3
20260502220124 11 315 0.0 1.6 0.00 0.00 0.00 100 996.3
20260502215622 11 270 1.6 1.6 0.00 0.00 0.00 100 996.3
20260502215055 11 310 0.0 3.2 0.00 0.00 0.00 100 996.3
20260502214602 11 290 3.2 4.8 0.00 0.00 0.00 100 996.2
20260502214135 11 279 4.8 8.0 0.00 0.00 0.00 100 996.2
20260502213556 11 292 1.6 4.8 0.00 0.00 0.00 100 996.2
20260502213049 11 288 3.2 6.4 0.00 0.00 0.00 100 996.2
20260502212556 11 301 1.6 6.4 0.00 0.00 0.00 100 996.2
20260502212039 11 318 4.8 8.0 0.00 0.00 0.00 100 996.2
20260502211057 11 277 3.2 4.8 0.00 0.00 0.00 100 996.1
20260502210537 11 284 4.8 6.4 0.00 0.00 0.00 100 996.1
20260502210037 12 304 3.2 8.0 0.00 0.00 0.00 100 996.0
20260502205604 12 307 6.4 8.0 0.00 0.00 0.00 100 995.9
20260502205037 12 296 6.4 9.7 0.00 0.00 0.00 100 995.9
20260502204514 12 307 3.2 11.3 0.00 0.00 0.00 100 995.8
20260502204028 12 283 3.2 8.0 0.00 0.00 0.00 100 995.8
20260502203522 12 304 1.6 4.8 0.00 0.00 0.00 100 995.7
20260502203006 12 303 1.6 4.8 0.00 0.00 0.00 100 995.6
20260502202547 12 270 1.6 3.2 0.00 0.00 0.00 100 995.6
20260502202003 12 285 3.2 4.8 0.00 0.00 0.00 100 995.5
20260502201040 12 293 6.4 6.4 0.00 0.00 0.00 100 995.5
20260502200525 12 270 0.0 1.6 0.00 0.00 0.00 100 995.4
20260502195951 12 315 1.6 1.6 0.00 0.00 0.00 100 995.3
20260502195457 12 304 1.6 3.2 0.00 0.00 0.00 100 995.3
20260502195018 13 304 1.6 3.2 0.00 0.00 0.00 100 995.2
20260502194436 13 309 3.2 3.2 0.00 0.00 0.00 100 995.1
20260502194026 13 274 1.6 3.2 0.00 0.00 0.00 100 995.2
20260502193439 13 274 1.6 3.2 0.00 0.00 0.00 100 995.1
20260502192926 14 270 1.6 3.2 0.00 0.00 0.00 100 995.1
20260502192450 14 285 3.2 4.8 0.00 0.00 0.00 100 995.1
20260502191920 14 277 3.2 3.2 0.00 0.00 0.00 100 995.0
20260502191426 14 257 1.6 1.6 0.00 0.00 0.00 100 995.1
20260502190941 15 270 0.0 0.0 0.00 0.00 0.00 100 994.9
20260502190438 15 270 0.0 1.6 0.00 0.00 0.00 100 995.0
20260502185907 15 270 0.0 0.0 0.00 0.00 0.00 100 995.0